createdAt,value
2022-08-25T00:02:02.023Z,57.56
2022-08-25T00:04:30.667Z,57.96
2022-08-25T00:07:02.666Z,57.57
2022-08-25T00:09:30.744Z,57.87
2022-08-25T00:11:57.538Z,60.13
2022-08-25T00:14:30.679Z,59.26
2022-08-25T00:16:57.651Z,59.18
2022-08-25T00:19:28.231Z,58.42
2022-08-25T00:21:56.455Z,59.05
2022-08-25T00:24:23.370Z,59.62
2022-08-25T00:26:52.912Z,60.02
2022-08-25T00:29:20.416Z,59.82
2022-08-25T00:31:47.756Z,60.46
2022-08-25T00:34:23.249Z,58.79
2022-08-25T00:36:51.912Z,58.97
2022-08-25T00:39:21.171Z,58.95
2022-08-25T00:41:49.847Z,58.40
2022-08-25T00:44:18.911Z,58.38
2022-08-25T00:46:51.775Z,58.41
2022-08-25T00:49:36.463Z,58.55
2022-08-25T00:52:06.018Z,58.86
2022-08-25T00:54:37.847Z,60.47
2022-08-25T00:57:06.700Z,60.65
2022-08-25T00:59:34.260Z,60.99
2022-08-25T01:02:01.723Z,60.63
2022-08-25T01:04:28.316Z,61.25
2022-08-25T01:06:58.184Z,59.98
2022-08-25T01:09:25.107Z,60.01
2022-08-25T01:11:53.015Z,60.21
2022-08-25T01:14:21.553Z,60.63
2022-08-25T01:16:51.266Z,60.08
2022-08-25T01:19:21.438Z,60.41
2022-08-25T01:21:49.466Z,60.16
2022-08-25T01:24:40.891Z,60.76
2022-08-25T01:27:09.081Z,60.92
2022-08-25T01:29:37.403Z,60.92
2022-08-25T01:32:09.000Z,60.36
2022-08-25T01:34:37.919Z,61.00
2022-08-25T01:37:05.878Z,60.58
2022-08-25T01:39:34.093Z,60.27
2022-08-25T01:42:06.646Z,60.91
2022-08-25T01:44:36.091Z,60.70
2022-08-25T01:47:04.684Z,61.65
2022-08-25T01:49:32.590Z,61.50
2022-08-25T01:52:06.053Z,62.82
2022-08-25T01:54:32.850Z,63.20
2022-08-25T01:56:59.742Z,63.86
2022-08-25T01:59:27.256Z,62.85
2022-08-25T02:01:59.584Z,63.34
2022-08-25T02:04:32.425Z,63.72
2022-08-25T02:07:00.470Z,63.37
2022-08-25T02:09:27.715Z,62.80
2022-08-25T02:11:54.535Z,62.53
2022-08-25T02:14:21.209Z,62.52
2022-08-25T02:16:51.268Z,62.60
2022-08-25T02:19:19.368Z,63.60
2022-08-25T02:21:46.121Z,63.66
2022-08-25T02:24:12.864Z,62.82
2022-08-25T02:26:40.515Z,64.38
2022-08-25T02:29:08.711Z,64.27
2022-08-25T02:31:36.166Z,64.33
2022-08-25T02:34:04.152Z,64.40
2022-08-25T02:36:32.182Z,65.13
2022-08-25T02:38:59.218Z,64.54
2022-08-25T02:41:31.403Z,64.17
2022-08-25T02:44:02.603Z,63.84
2022-08-25T02:46:29.683Z,64.13
2022-08-25T02:48:57.525Z,64.71
2022-08-25T02:51:25.955Z,64.26
2022-08-25T02:53:52.820Z,64.99
2022-08-25T02:56:20.141Z,64.39
2022-08-25T02:58:47.548Z,63.37
2022-08-25T03:01:14.844Z,63.72
2022-08-25T03:03:43.526Z,63.18
2022-08-25T03:06:13.197Z,62.25
2022-08-25T03:08:42.219Z,63.21
2022-08-25T03:11:09.357Z,63.06
2022-08-25T03:13:36.370Z,62.75
2022-08-25T03:16:06.170Z,62.42
2022-08-25T03:18:40.172Z,62.17
2022-08-25T03:21:07.626Z,63.31
2022-08-25T03:23:34.587Z,63.27
2022-08-25T03:26:19.940Z,63.42
2022-08-25T03:28:46.674Z,66.37
2022-08-25T03:31:13.409Z,66.49
2022-08-25T03:33:40.313Z,64.29
2022-08-25T03:36:08.642Z,62.84
2022-08-25T03:38:38.391Z,63.13
2022-08-25T03:41:21.684Z,63.51
2022-08-25T03:43:49.629Z,63.47
2022-08-25T03:46:23.171Z,62.98
2022-08-25T03:48:50.443Z,62.90
2022-08-25T03:51:29.766Z,62.42
2022-08-25T03:53:58.301Z,62.19
2022-08-25T03:56:25.419Z,62.99
2022-08-25T03:58:52.607Z,62.67
2022-08-25T04:01:19.311Z,62.75
2022-08-25T04:03:47.077Z,63.38
2022-08-25T04:06:15.409Z,63.81
2022-08-25T04:08:42.517Z,63.77
2022-08-25T04:11:19.484Z,63.34
2022-08-25T04:13:47.242Z,63.23
2022-08-25T04:16:18.654Z,63.72
2022-08-25T04:18:47.746Z,63.42
2022-08-25T04:21:15.640Z,65.08
2022-08-25T04:23:44.406Z,64.93
2022-08-25T04:26:16.375Z,65.30
2022-08-25T04:28:43.345Z,66.26
2022-08-25T04:31:12.189Z,66.84
2022-08-25T04:33:39.144Z,65.90
2022-08-25T04:36:11.950Z,63.50
2022-08-25T04:38:41.524Z,63.74
2022-08-25T04:41:10.065Z,63.65
2022-08-25T04:43:38.728Z,65.55
2022-08-25T04:46:08.112Z,67.29
2022-08-25T04:48:35.262Z,66.18
2022-08-25T04:51:09.864Z,67.06
2022-08-25T04:53:37.291Z,66.28
2022-08-25T04:56:08.465Z,65.93
2022-08-25T04:58:36.673Z,66.13
2022-08-25T05:01:05.547Z,67.00
2022-08-25T05:03:32.997Z,67.83
2022-08-25T05:05:59.646Z,69.79
2022-08-25T05:08:26.486Z,72.35
2022-08-25T05:10:54.666Z,72.49
2022-08-25T05:13:22.462Z,71.41
2022-08-25T05:15:54.075Z,70.64
2022-08-25T05:18:23.057Z,69.92
2022-08-25T05:20:50.900Z,70.20
2022-08-25T05:23:17.720Z,69.95
2022-08-25T05:25:44.559Z,70.46
2022-08-25T05:28:11.533Z,70.27
2022-08-25T05:30:40.192Z,70.26
2022-08-25T05:33:07.571Z,70.78
2022-08-25T05:35:34.100Z,69.54
2022-08-25T05:38:00.993Z,70.73
2022-08-25T05:40:28.499Z,69.06
2022-08-25T05:42:55.268Z,69.02
2022-08-25T05:45:22.054Z,69.63
2022-08-25T05:47:49.307Z,70.10
2022-08-25T05:50:16.927Z,69.65
2022-08-25T05:52:44.299Z,70.08
2022-08-25T05:55:11.098Z,69.10
2022-08-25T05:57:37.923Z,69.88
2022-08-25T06:00:06.508Z,69.49
2022-08-25T06:02:43.831Z,69.18
2022-08-25T06:05:21.610Z,67.99
2022-08-25T06:07:50.479Z,68.90
2022-08-25T06:10:18.067Z,68.83
2022-08-25T06:12:45.912Z,68.22
2022-08-25T06:15:20.204Z,67.84
2022-08-25T06:17:48.121Z,67.67
2022-08-25T06:20:22.045Z,67.85
2022-08-25T06:22:52.436Z,67.51
2022-08-25T06:25:21.815Z,66.98
2022-08-25T06:27:49.046Z,67.98
2022-08-25T06:30:24.141Z,68.28
2022-08-25T06:32:52.583Z,68.70
2022-08-25T06:35:20.000Z,67.62
2022-08-25T06:37:47.243Z,66.90
2022-08-25T06:40:15.129Z,66.68
2022-08-25T06:42:42.247Z,65.94
2022-08-25T06:45:09.543Z,65.64
2022-08-25T06:47:36.345Z,65.66
2022-08-25T06:50:04.723Z,67.13
2022-08-25T06:52:31.769Z,66.84
2022-08-25T06:54:58.646Z,66.56
2022-08-25T06:57:25.363Z,66.79
2022-08-25T06:59:53.721Z,67.35
2022-08-25T07:02:22.312Z,66.54
2022-08-25T07:04:49.540Z,66.30
2022-08-25T07:07:16.207Z,66.36
2022-08-25T07:09:43.104Z,66.21
2022-08-25T07:12:10.007Z,65.81
2022-08-25T07:14:37.022Z,65.56
2022-08-25T07:17:10.527Z,64.79
2022-08-25T07:19:41.021Z,65.89
2022-08-25T07:22:07.841Z,66.17
2022-08-25T07:24:36.242Z,66.23
2022-08-25T07:27:03.075Z,65.42
2022-08-25T07:29:32.092Z,65.23
2022-08-25T07:32:01.405Z,65.19
2022-08-25T07:34:52.474Z,65.14
2022-08-25T07:37:38.319Z,63.78
2022-08-25T07:40:09.407Z,64.01
2022-08-25T07:42:36.095Z,64.30
2022-08-25T07:45:06.177Z,64.18
2022-08-25T07:47:34.854Z,64.24
2022-08-25T07:50:01.794Z,64.10
2022-08-25T07:52:28.558Z,63.51
2022-08-25T07:54:55.404Z,63.08
2022-08-25T07:57:23.983Z,62.46
2022-08-25T07:59:50.714Z,61.85
2022-08-25T08:02:19.391Z,63.32
2022-08-25T08:04:51.223Z,61.33
2022-08-25T08:07:41.983Z,61.39
2022-08-25T08:13:00.601Z,61.00
2022-08-25T08:15:29.535Z,62.56
2022-08-25T08:17:57.219Z,62.23
2022-08-25T08:20:25.212Z,60.79
2022-08-25T08:22:52.149Z,59.03
2022-08-25T08:25:21.606Z,59.05
2022-08-25T08:27:55.040Z,57.97
2022-08-25T08:30:23.763Z,56.81
2022-08-25T08:33:11.852Z,53.71
2022-08-25T08:35:42.182Z,51.70
2022-08-25T08:38:14.428Z,50.80
2022-08-25T08:41:22.996Z,49.52
2022-08-25T08:43:56.425Z,49.44
2022-08-25T08:46:23.374Z,50.21
2022-08-25T08:49:09.876Z,52.03
2022-08-25T08:51:51.366Z,51.97
2022-08-25T08:54:25.205Z,53.53
2022-08-25T08:57:16.668Z,53.09
2022-08-25T08:59:50.393Z,54.12
2022-08-25T09:02:39.319Z,53.58
2022-08-25T09:05:20.086Z,54.84
2022-08-25T09:07:57.605Z,54.88
2022-08-25T09:10:29.253Z,53.71
2022-08-25T09:13:11.878Z,53.29
2022-08-25T09:16:13.156Z,52.74
2022-08-25T09:19:21.226Z,52.73
2022-08-25T09:22:33.598Z,52.63
2022-08-25T09:25:08.496Z,52.54
2022-08-25T09:27:46.538Z,52.53
2022-08-25T09:30:17.155Z,53.21
2022-08-25T09:33:05.107Z,52.46
2022-08-25T09:35:34.260Z,53.36
2022-08-25T09:38:12.396Z,52.76
2022-08-25T09:40:42.998Z,52.07
2022-08-25T09:43:21.925Z,51.57
2022-08-25T09:45:58.179Z,52.21
2022-08-25T09:48:40.901Z,52.12
2022-08-25T09:51:20.884Z,52.53
2022-08-25T09:54:20.365Z,51.30
2022-08-25T09:56:54.862Z,50.27
2022-08-25T09:59:36.616Z,49.57
2022-08-25T10:02:25.947Z,50.83
2022-08-25T10:04:54.345Z,50.25
2022-08-25T10:07:51.804Z,49.16
2022-08-25T10:10:34.499Z,50.04
2022-08-25T10:13:03.600Z,48.96
2022-08-25T10:15:36.600Z,48.09
2022-08-25T10:18:15.767Z,48.45
2022-08-25T10:20:44.956Z,48.47
2022-08-25T10:23:19.134Z,48.99
2022-08-25T10:25:59.277Z,49.27
2022-08-25T10:28:35.024Z,48.77
2022-08-25T10:31:25.818Z,48.61
2022-08-25T10:34:05.211Z,47.29
2022-08-25T10:36:56.077Z,46.83
2022-08-25T10:39:55.391Z,47.74
2022-08-25T10:42:49.474Z,47.25
2022-08-25T10:45:43.484Z,45.67
2022-08-25T10:48:35.050Z,45.63
2022-08-25T10:51:19.622Z,45.53
2022-08-25T10:54:07.849Z,45.50
2022-08-25T10:56:40.868Z,44.74
2022-08-25T10:59:25.853Z,43.76
2022-08-25T11:02:12.871Z,43.65
2022-08-25T11:04:53.024Z,44.38
2022-08-25T11:07:35.853Z,44.69
2022-08-25T11:10:12.351Z,44.61
2022-08-25T11:12:57.265Z,42.49
2022-08-25T11:15:50.238Z,41.03
2022-08-25T11:18:31.893Z,39.02
2022-08-25T11:21:14.123Z,35.40
2022-08-25T11:24:09.187Z,32.65
2022-08-25T11:26:38.085Z,33.05
2022-08-25T11:29:17.714Z,31.14
2022-08-25T11:31:52.857Z,31.98
2022-08-25T11:34:21.597Z,32.21
2022-08-25T11:36:58.104Z,29.69
2022-08-25T11:39:54.395Z,30.00
2022-08-25T11:42:35.095Z,27.69
2022-08-25T11:45:23.651Z,30.96
2022-08-25T11:48:18.233Z,32.60
2022-08-25T11:51:03.528Z,33.43
2022-08-25T11:53:37.960Z,35.82
2022-08-25T11:56:32.658Z,35.08
2022-08-25T11:59:01.478Z,36.04
2022-08-25T12:01:40.482Z,37.68
2022-08-25T12:04:31.695Z,39.09
2022-08-25T12:07:08.844Z,38.02
2022-08-25T12:09:55.492Z,36.68
2022-08-25T12:12:28.309Z,37.75
2022-08-25T12:14:55.174Z,39.31
2022-08-25T12:17:36.833Z,39.21
2022-08-25T12:20:07.098Z,39.03
2022-08-25T12:22:34.271Z,39.19
2022-08-25T12:25:24.475Z,39.46
2022-08-25T12:27:51.412Z,37.98
2022-08-25T12:30:47.749Z,37.34
2022-08-25T12:33:26.289Z,38.69
2022-08-25T12:36:05.275Z,40.37
2022-08-25T12:38:53.005Z,38.65
2022-08-25T12:41:24.514Z,39.04
2022-08-25T12:43:54.483Z,39.06
2022-08-25T12:46:21.255Z,40.86
2022-08-25T12:49:14.398Z,39.96
2022-08-25T12:51:57.348Z,40.80
2022-08-25T12:54:41.007Z,41.53
2022-08-25T12:57:29.487Z,41.38
2022-08-25T12:59:59.802Z,41.10
2022-08-25T13:02:51.665Z,40.85
2022-08-25T13:05:22.020Z,41.64
2022-08-25T13:08:22.646Z,41.47
2022-08-25T13:11:05.562Z,39.88
2022-08-25T13:13:47.389Z,40.66
2022-08-25T13:16:28.446Z,40.65
2022-08-25T13:18:59.366Z,40.37
2022-08-25T13:21:41.916Z,38.85
2022-08-25T13:24:30.298Z,38.48
2022-08-25T13:27:09.539Z,39.84
2022-08-25T13:29:49.352Z,38.88
2022-08-25T13:32:27.082Z,38.51
2022-08-25T13:35:14.525Z,38.00
2022-08-25T13:37:41.358Z,38.05
2022-08-25T13:40:20.261Z,36.97
2022-08-25T13:42:58.112Z,36.26
2022-08-25T13:45:31.797Z,34.99
2022-08-25T13:47:59.079Z,33.33
2022-08-25T13:50:26.445Z,31.65
2022-08-25T13:53:23.869Z,29.98
2022-08-25T13:55:57.133Z,28.70
2022-08-25T13:58:45.242Z,27.14
2022-08-25T14:01:48.050Z,25.31
2022-08-25T14:04:20.101Z,24.77
2022-08-25T14:06:47.286Z,24.11
2022-08-25T14:09:28.304Z,24.39
2022-08-25T14:11:58.669Z,23.86
2022-08-25T14:14:25.280Z,27.25
2022-08-25T14:17:28.803Z,27.62
2022-08-25T14:19:59.627Z,27.28
2022-08-25T14:22:27.128Z,26.99
2022-08-25T14:24:55.696Z,28.83
2022-08-25T14:27:22.424Z,29.37
2022-08-25T14:29:52.700Z,30.23
2022-08-25T14:32:19.892Z,31.93
2022-08-25T14:34:47.150Z,32.60
2022-08-25T14:37:17.247Z,33.89
2022-08-25T14:39:44.761Z,34.12
2022-08-25T14:42:12.588Z,34.75
2022-08-25T14:44:39.666Z,35.14
2022-08-25T14:47:07.768Z,34.73
2022-08-25T14:49:38.498Z,34.48
2022-08-25T14:52:13.156Z,34.32
2022-08-25T14:54:39.871Z,34.45
2022-08-25T14:57:08.300Z,34.73
2022-08-25T14:59:35.608Z,34.31
2022-08-25T15:02:14.223Z,34.81
2022-08-25T15:04:48.975Z,35.43
2022-08-25T15:07:37.469Z,35.50
2022-08-25T15:10:07.808Z,35.17
2022-08-25T15:12:46.574Z,34.75
2022-08-25T15:15:14.970Z,34.79
2022-08-25T15:17:44.628Z,36.22
2022-08-25T15:20:11.891Z,36.42
2022-08-25T15:22:38.676Z,36.95
2022-08-25T15:25:05.929Z,36.54
2022-08-25T15:27:34.576Z,36.44
2022-08-25T15:30:02.804Z,37.52
2022-08-25T15:32:29.489Z,36.81
2022-08-25T15:34:56.102Z,36.65
2022-08-25T15:37:23.515Z,36.60
2022-08-25T15:39:50.314Z,36.25
2022-08-25T15:42:17.087Z,35.85
2022-08-25T15:44:53.164Z,35.90
2022-08-25T15:47:21.806Z,36.65
2022-08-25T15:49:48.477Z,37.37
2022-08-25T15:52:15.399Z,37.44
2022-08-25T15:54:42.025Z,38.55
2022-08-25T15:57:15.115Z,37.96
2022-08-25T15:59:52.482Z,37.80
2022-08-25T16:02:20.704Z,37.13
2022-08-25T16:04:47.647Z,37.69
2022-08-25T16:07:14.296Z,38.15
2022-08-25T16:09:41.817Z,38.38
2022-08-25T16:12:08.998Z,38.39
2022-08-25T16:14:38.275Z,38.01
2022-08-25T16:17:06.568Z,38.66
2022-08-25T16:19:33.584Z,38.16
2022-08-25T16:22:06.633Z,38.37
2022-08-25T16:24:38.448Z,38.34
2022-08-25T16:27:11.042Z,38.95
2022-08-25T16:29:42.628Z,38.70
2022-08-25T16:32:11.440Z,39.34
2022-08-25T16:34:40.702Z,39.64
2022-08-25T16:37:08.690Z,39.46
2022-08-25T16:39:36.097Z,38.84
2022-08-25T16:42:06.940Z,39.02
2022-08-25T16:44:34.539Z,39.23
2022-08-25T16:47:02.099Z,39.33
2022-08-25T16:49:28.954Z,39.55
2022-08-25T16:51:57.280Z,39.67
2022-08-25T16:54:44.360Z,40.15
2022-08-25T16:57:11.621Z,41.60
2022-08-25T16:59:38.143Z,40.20
2022-08-25T17:02:06.519Z,41.02
2022-08-25T17:04:33.304Z,40.57
2022-08-25T17:07:00.069Z,40.26
2022-08-25T17:09:29.578Z,40.59
2022-08-25T17:11:57.274Z,41.16
2022-08-25T17:14:24.479Z,41.50
2022-08-25T17:16:54.697Z,41.59
2022-08-25T17:19:23.611Z,41.38
2022-08-25T17:21:51.046Z,41.57
2022-08-25T17:24:18.262Z,41.24
2022-08-25T17:26:47.284Z,42.00
2022-08-25T17:29:14.016Z,41.99
2022-08-25T17:31:42.936Z,42.61
2022-08-25T17:34:16.428Z,42.74
2022-08-25T17:36:44.052Z,42.83
2022-08-25T17:39:13.211Z,42.30
2022-08-25T17:41:43.100Z,42.33
2022-08-25T17:44:09.810Z,42.81
2022-08-25T17:46:36.945Z,43.21
2022-08-25T17:49:04.326Z,43.24
2022-08-25T17:51:32.032Z,43.09
2022-08-25T17:53:59.312Z,43.47
2022-08-25T17:56:27.844Z,43.30
2022-08-25T17:58:56.062Z,44.25
2022-08-25T18:01:27.683Z,45.46
2022-08-25T18:03:55.038Z,44.51
2022-08-25T18:06:23.810Z,44.84
2022-08-25T18:08:53.011Z,44.26
2022-08-25T18:11:23.649Z,44.86
2022-08-25T18:13:54.761Z,45.31
2022-08-25T18:16:22.610Z,45.91
2022-08-25T18:18:49.770Z,45.21
2022-08-25T18:21:20.437Z,45.80
2022-08-25T18:23:47.810Z,45.69
2022-08-25T18:26:15.460Z,46.25
2022-08-25T18:28:44.000Z,46.12
2022-08-25T18:31:13.134Z,46.11
2022-08-25T18:33:42.222Z,47.73
2022-08-25T18:36:10.010Z,47.02
2022-08-25T18:38:58.137Z,46.73
2022-08-25T18:41:26.834Z,46.60
2022-08-25T18:43:53.517Z,46.85
2022-08-25T18:46:22.602Z,46.36
2022-08-25T18:48:52.964Z,47.08
2022-08-25T18:51:23.273Z,47.25
2022-08-25T18:53:54.603Z,47.20
2022-08-25T18:56:26.718Z,47.26
2022-08-25T18:58:53.456Z,47.35
2022-08-25T19:01:20.651Z,47.58
2022-08-25T19:03:49.253Z,48.01
2022-08-25T19:06:16.962Z,48.59
2022-08-25T19:08:44.622Z,48.57
2022-08-25T19:11:12.187Z,48.62
2022-08-25T19:13:39.451Z,49.00
2022-08-25T19:16:14.019Z,48.80
2022-08-25T19:18:44.979Z,49.53
2022-08-25T19:21:11.858Z,48.81
2022-08-25T19:23:38.998Z,49.00
2022-08-25T19:26:08.686Z,49.49
2022-08-25T19:28:45.521Z,49.66
2022-08-25T19:31:12.636Z,51.14
2022-08-25T19:33:44.863Z,50.79
2022-08-25T19:36:12.199Z,51.26
2022-08-25T19:38:39.415Z,50.36
2022-08-25T19:41:09.399Z,50.74
2022-08-25T19:43:56.147Z,50.89
2022-08-25T19:46:32.245Z,51.03
2022-08-25T19:49:08.025Z,50.96
2022-08-25T19:51:38.520Z,51.14
2022-08-25T19:54:06.492Z,51.65
2022-08-25T19:56:37.517Z,53.22
2022-08-25T19:59:11.268Z,53.31
2022-08-25T20:01:38.812Z,53.37
2022-08-25T20:04:07.228Z,53.23
2022-08-25T20:06:33.964Z,52.79
2022-08-25T20:09:00.778Z,52.08
2022-08-25T20:11:28.969Z,53.12
2022-08-25T20:13:59.297Z,52.68
2022-08-25T20:16:29.919Z,52.52
2022-08-25T20:18:56.672Z,52.69
2022-08-25T20:21:24.325Z,52.81
2022-08-25T20:24:09.303Z,53.00
2022-08-25T20:26:36.429Z,52.94
2022-08-25T20:29:05.208Z,53.35
2022-08-25T20:31:32.589Z,54.02
2022-08-25T20:34:02.846Z,53.90
2022-08-25T20:36:30.216Z,53.88
2022-08-25T20:38:59.023Z,53.84
2022-08-25T20:41:25.988Z,54.59
2022-08-25T20:43:52.767Z,54.19
2022-08-25T20:46:19.626Z,54.65
2022-08-25T20:48:47.014Z,54.84
2022-08-25T20:51:18.680Z,54.43
2022-08-25T20:53:45.849Z,53.99
2022-08-25T20:56:15.717Z,54.37
2022-08-25T20:58:43.124Z,53.81
2022-08-25T21:01:20.339Z,54.48
2022-08-25T21:03:50.399Z,55.31
2022-08-25T21:06:17.214Z,55.28
2022-08-25T21:08:47.021Z,54.85
2022-08-25T21:11:17.991Z,54.68
2022-08-25T21:13:45.940Z,54.86
2022-08-25T21:16:12.687Z,55.65
2022-08-25T21:18:47.857Z,56.05
2022-08-25T21:21:16.810Z,57.05
2022-08-25T21:23:47.443Z,56.90
2022-08-25T21:26:27.831Z,57.24
2022-08-25T21:28:59.000Z,57.50
2022-08-25T21:31:26.240Z,57.78
2022-08-25T21:33:56.165Z,58.72
2022-08-25T21:36:24.683Z,59.18
2022-08-25T21:38:53.166Z,59.79
2022-08-25T21:41:27.087Z,59.73
2022-08-25T21:43:54.391Z,60.29
2022-08-25T21:46:24.472Z,60.16
2022-08-25T21:48:52.508Z,59.45
2022-08-25T21:51:26.771Z,58.87
2022-08-25T21:54:08.921Z,59.61
2022-08-25T21:56:37.942Z,59.40
2022-08-25T21:59:06.328Z,59.21
2022-08-25T22:01:33.770Z,58.73
2022-08-25T22:04:02.179Z,58.30
2022-08-25T22:06:29.861Z,58.61
2022-08-25T22:08:56.604Z,58.00
2022-08-25T22:11:23.416Z,57.59
2022-08-25T22:13:51.649Z,57.62
2022-08-25T22:16:22.372Z,57.74
2022-08-25T22:18:49.793Z,57.71
2022-08-25T22:21:18.731Z,58.98
2022-08-25T22:23:45.500Z,58.40
2022-08-25T22:26:15.514Z,58.48
2022-08-25T22:28:46.561Z,58.19
2022-08-25T22:31:14.652Z,57.84
2022-08-25T22:33:48.583Z,58.30
2022-08-25T22:36:19.220Z,57.77
2022-08-25T22:38:47.841Z,57.12
2022-08-25T22:41:19.061Z,57.98
2022-08-25T22:43:49.631Z,57.77
2022-08-25T22:46:20.601Z,58.33
2022-08-25T22:48:47.360Z,58.27
2022-08-25T22:51:23.455Z,58.47
2022-08-25T22:53:50.740Z,58.73
2022-08-25T22:56:21.160Z,59.49
2022-08-25T22:58:51.702Z,58.59
2022-08-25T23:01:20.274Z,58.85
2022-08-25T23:03:47.581Z,58.78
2022-08-25T23:06:24.604Z,59.48
2022-08-25T23:08:54.092Z,60.83
2022-08-25T23:11:22.098Z,61.46
2022-08-25T23:13:49.065Z,61.51
2022-08-25T23:16:17.010Z,61.98
2022-08-25T23:18:47.159Z,60.84
2022-08-25T23:21:35.126Z,59.82
2022-08-25T23:24:05.750Z,59.84
2022-08-25T23:26:33.936Z,59.54
2022-08-25T23:29:01.134Z,60.39
2022-08-25T23:31:30.396Z,60.80
2022-08-25T23:33:57.734Z,59.36
2022-08-25T23:36:24.754Z,61.23
2022-08-25T23:38:52.702Z,61.53
2022-08-25T23:41:24.577Z,61.26
2022-08-25T23:43:52.801Z,60.99
2022-08-25T23:46:23.339Z,62.01
2022-08-25T23:48:51.596Z,61.87
2022-08-25T23:51:30.812Z,62.22
2022-08-25T23:53:59.334Z,62.20
2022-08-25T23:56:26.221Z,62.15
2022-08-25T23:58:55.530Z,62.60
